createdAt,value
2016-12-28T00:00:03.805Z,21.61
2016-12-28T00:01:03.516Z,21.59
2016-12-28T00:02:04.156Z,21.58
2016-12-28T00:03:03.873Z,21.62
2016-12-28T00:04:03.595Z,21.58
2016-12-28T00:05:03.931Z,21.59
2016-12-28T00:06:03.664Z,21.54
2016-12-28T00:07:03.993Z,21.56
2016-12-28T00:08:04.317Z,21.56
2016-12-28T00:09:04.045Z,21.46
2016-12-28T00:10:04.071Z,21.47
2016-12-28T00:11:03.791Z,21.46
2016-12-28T00:12:04.128Z,21.49
2016-12-28T00:13:04.454Z,21.46
2016-12-28T00:14:03.878Z,21.49
2016-12-28T00:15:03.906Z,21.52
2016-12-28T00:16:03.931Z,21.43
2016-12-28T00:17:04.268Z,21.5
2016-12-28T00:18:04.292Z,21.44
2016-12-28T00:19:04.626Z,21.4
2016-12-28T00:20:04.026Z,21.4
2016-12-28T00:21:04.366Z,21.46
2016-12-28T00:22:04.397Z,21.44
2016-12-28T00:23:04.124Z,21.44
2016-12-28T00:24:04.181Z,21.37
2016-12-28T00:25:04.485Z,21.34
2016-12-28T00:26:04.195Z,21.4
2016-12-28T00:27:04.231Z,21.37
2016-12-28T00:28:04.564Z,21.35
2016-12-28T00:29:04.584Z,21.38
2016-12-28T00:30:04.337Z,21.37
2016-12-28T00:31:04.342Z,21.37
2016-12-28T00:32:04.668Z,21.42
2016-12-28T00:33:04.404Z,21.29
2016-12-28T00:34:05.036Z,21.37
2016-12-28T00:35:04.453Z,21.31
2016-12-28T00:36:04.786Z,21.35
2016-12-28T00:37:05.115Z,21.28
2016-12-28T00:38:04.832Z,21.32
2016-12-28T00:39:04.552Z,21.27
2016-12-28T00:40:04.892Z,21.34
2016-12-28T00:41:05.213Z,21.22
2016-12-28T00:42:04.639Z,21.32
2016-12-28T00:43:04.671Z,21.31
2016-12-28T00:44:04.998Z,21.25
2016-12-28T00:45:05.324Z,21.24
2016-12-28T00:46:04.753Z,21.25
2016-12-28T00:47:05.383Z,21.25
2016-12-28T00:48:04.799Z,21.28
2016-12-28T00:49:05.123Z,21.28
2016-12-28T00:50:04.856Z,21.19
2016-12-28T00:51:05.193Z,21.25
2016-12-28T00:52:04.914Z,21.28
2016-12-28T00:53:04.934Z,21.22
2016-12-28T00:54:04.966Z,21.14
2016-12-28T00:55:05.604Z,21.17
2016-12-28T00:56:05.637Z,21.19
2016-12-28T00:57:05.042Z,21.21
2016-12-28T00:58:05.678Z,21.16
2016-12-28T00:59:05.098Z,21.17
2016-12-28T01:00:05.432Z,21.13
2016-12-28T01:01:05.156Z,21.12
2016-12-28T01:02:05.196Z,21.1
2016-12-28T01:03:05.522Z,21.19
2016-12-28T01:04:05.535Z,21.16
2016-12-28T01:05:05.259Z,21.16
2016-12-28T01:06:05.900Z,21.13
2016-12-28T01:07:05.921Z,21.1
2016-12-28T01:08:05.646Z,21.13
2016-12-28T01:09:05.694Z,21.13
2016-12-28T01:10:05.403Z,21.1
2016-12-28T01:11:05.468Z,21.09
2016-12-28T01:12:05.489Z,21.06
2016-12-28T01:13:05.785Z,21.1
2016-12-28T01:14:05.814Z,21.07
2016-12-28T01:15:05.838Z,21.01
2016-12-28T01:16:05.575Z,21.09
2016-12-28T01:17:05.891Z,21.07
2016-12-28T01:18:05.920Z,21.07
2016-12-28T01:19:05.949Z,21.01
2016-12-28T01:20:05.670Z,21.01
2016-12-28T01:21:06.003Z,20.97
2016-12-28T01:22:05.727Z,21.1
2016-12-28T01:23:05.778Z,20.95
2016-12-28T01:24:06.093Z,20.99
2016-12-28T01:25:06.414Z,21.04
2016-12-28T01:26:05.822Z,21.01
2016-12-28T01:27:06.159Z,21.01
2016-12-28T01:28:06.192Z,20.94
2016-12-28T01:29:06.216Z,20.97
2016-12-28T01:30:06.253Z,20.98
2016-12-28T01:31:06.570Z,20.91
2016-12-28T01:32:06.303Z,20.97
2016-12-28T01:33:06.632Z,20.95
2016-12-28T01:34:06.360Z,20.95
2016-12-28T01:35:06.676Z,20.95
2016-12-28T01:36:06.406Z,20.94
2016-12-28T01:37:06.126Z,20.87
2016-12-28T01:38:06.451Z,21.04
2016-12-28T01:39:06.172Z,20.98
2016-12-28T01:40:06.516Z,20.89
2016-12-28T01:41:06.541Z,20.94
2016-12-28T01:42:06.874Z,20.85
2016-12-28T01:43:06.599Z,20.92
2016-12-28T01:44:06.311Z,20.91
2016-12-28T01:45:06.344Z,20.95
2016-12-28T01:46:06.977Z,20.94
2016-12-28T01:47:06.393Z,20.91
2016-12-28T01:48:07.038Z,20.94
2016-12-28T01:49:06.447Z,20.85
2016-12-28T01:50:06.475Z,20.91
2016-12-28T01:51:06.504Z,20.87
2016-12-28T01:52:07.141Z,20.91
2016-12-28T01:53:06.862Z,20.91
2016-12-28T01:54:07.198Z,20.91
2016-12-28T01:55:06.612Z,20.87
2016-12-28T01:56:06.948Z,20.87
2016-12-28T01:57:06.965Z,20.87
2016-12-28T01:58:07.301Z,20.8
2016-12-28T01:59:06.722Z,20.85
2016-12-28T02:00:06.754Z,20.82
2016-12-28T02:01:07.081Z,20.87
2016-12-28T02:02:07.409Z,20.8
2016-12-28T02:03:06.828Z,20.73
2016-12-28T02:04:07.173Z,20.79
2016-12-28T02:05:06.884Z,20.77
2016-12-28T02:06:06.914Z,20.69
2016-12-28T02:07:06.931Z,20.79
2016-12-28T02:08:07.275Z,20.72
2016-12-28T02:09:07.292Z,20.74
2016-12-28T02:10:07.325Z,20.8
2016-12-28T02:11:07.677Z,20.77
2016-12-28T02:12:07.677Z,20.7
2016-12-28T02:13:07.102Z,20.69
2016-12-28T02:14:07.423Z,20.72
2016-12-28T02:15:07.464Z,20.76
2016-12-28T02:16:07.184Z,20.73
2016-12-28T02:17:07.206Z,20.7
2016-12-28T02:18:07.234Z,20.66
2016-12-28T02:19:07.879Z,20.66
2016-12-28T02:20:07.283Z,20.73
2016-12-28T02:21:07.611Z,20.72
2016-12-28T02:22:07.940Z,20.72
2016-12-28T02:23:07.673Z,20.73
2016-12-28T02:24:07.401Z,20.74
2016-12-28T02:25:07.418Z,20.62
2016-12-28T02:26:07.763Z,20.67
2016-12-28T02:27:07.777Z,20.64
2016-12-28T02:28:07.504Z,20.67
2016-12-28T02:29:07.529Z,20.64
2016-12-28T02:30:07.865Z,20.59
2016-12-28T02:31:07.874Z,20.69
2016-12-28T02:32:08.207Z,20.72
2016-12-28T02:33:07.936Z,20.61
2016-12-28T02:34:07.996Z,20.59
2016-12-28T02:35:07.992Z,20.64
2016-12-28T02:36:07.725Z,20.61
2016-12-28T02:37:07.737Z,20.66
2016-12-28T02:38:07.762Z,20.62
2016-12-28T02:39:07.787Z,20.61
2016-12-28T02:40:08.119Z,20.66
2016-12-28T02:41:08.148Z,20.66
2016-12-28T02:42:08.476Z,20.69
2016-12-28T02:43:07.896Z,20.58
2016-12-28T02:44:08.230Z,20.62
2016-12-28T02:45:08.558Z,20.62
2016-12-28T02:46:08.592Z,20.67
2016-12-28T02:47:08.309Z,20.58
2016-12-28T02:48:08.327Z,20.62
2016-12-28T02:49:08.657Z,20.59
2016-12-28T02:50:08.080Z,20.62
2016-12-28T02:51:08.113Z,20.57
2016-12-28T02:52:08.446Z,20.58
2016-12-28T02:53:08.469Z,20.57
2016-12-28T02:54:08.191Z,20.61
2016-12-28T02:55:08.228Z,20.61
2016-12-28T02:56:08.244Z,20.54
2016-12-28T02:57:08.568Z,20.55
2016-12-28T02:58:08.604Z,20.59
2016-12-28T02:59:08.317Z,20.51
2016-12-28T03:00:08.358Z,20.52
2016-12-28T03:01:08.379Z,20.61
2016-12-28T03:02:09.044Z,20.58
2016-12-28T03:03:08.736Z,20.52
2016-12-28T03:04:09.070Z,20.5
2016-12-28T03:05:08.473Z,20.57
2016-12-28T03:06:08.814Z,20.54
2016-12-28T03:07:08.841Z,20.51
2016-12-28T03:08:08.562Z,20.51
2016-12-28T03:09:08.905Z,20.57
2016-12-28T03:10:08.624Z,20.47
2016-12-28T03:11:08.948Z,20.47
2016-12-28T03:12:08.972Z,20.5
2016-12-28T03:13:09.308Z,20.58
2016-12-28T03:14:09.330Z,20.52
2016-12-28T03:15:09.350Z,20.42
2016-12-28T03:16:08.774Z,20.47
2016-12-28T03:17:09.099Z,20.54
2016-12-28T03:18:08.828Z,20.47
2016-12-28T03:19:09.160Z,20.47
2016-12-28T03:20:09.185Z,20.43
2016-12-28T03:21:08.910Z,20.43
2016-12-28T03:22:09.550Z,20.52
2016-12-28T03:23:08.950Z,20.5
2016-12-28T03:24:08.983Z,20.39
2016-12-28T03:25:09.014Z,20.41
2016-12-28T03:26:09.340Z,20.39
2016-12-28T03:27:09.057Z,20.5
2016-12-28T03:28:09.097Z,20.48
2016-12-28T03:29:09.726Z,20.43
2016-12-28T03:30:09.757Z,20.35
2016-12-28T03:31:09.471Z,20.48
2016-12-28T03:32:09.208Z,20.5
2016-12-28T03:33:09.821Z,20.41
2016-12-28T03:34:09.545Z,20.38
2016-12-28T03:35:09.283Z,20.43
2016-12-28T03:36:09.607Z,20.43
2016-12-28T03:37:09.640Z,20.39
2016-12-28T03:38:09.663Z,20.41
2016-12-28T03:39:09.689Z,20.39
2016-12-28T03:40:09.401Z,20.38
2016-12-28T03:41:09.434Z,20.32
2016-12-28T03:42:09.778Z,20.42
2016-12-28T03:43:10.091Z,20.36
2016-12-28T03:44:09.516Z,20.35
2016-12-28T03:45:09.555Z,20.36
2016-12-28T03:46:09.569Z,20.39
2016-12-28T03:47:09.907Z,20.36
2016-12-28T03:48:09.932Z,20.32
2016-12-28T03:49:09.944Z,20.31
2016-12-28T03:50:09.680Z,20.33
2016-12-28T03:51:10.001Z,20.33
2016-12-28T03:52:09.737Z,20.36
2016-12-28T03:53:10.062Z,20.36
2016-12-28T03:54:10.099Z,20.31
2016-12-28T03:55:09.812Z,20.33
2016-12-28T03:56:10.139Z,20.35
2016-12-28T03:57:10.161Z,20.36
2016-12-28T03:58:10.498Z,20.39
2016-12-28T03:59:09.910Z,20.41
2016-12-28T04:00:09.944Z,20.36
2016-12-28T04:01:09.972Z,20.33
2016-12-28T04:02:09.996Z,20.29
2016-12-28T04:03:10.330Z,20.33
2016-12-28T04:04:10.054Z,20.32
2016-12-28T04:05:10.679Z,20.33
2016-12-28T04:06:10.401Z,20.35
2016-12-28T04:07:10.128Z,20.32
2016-12-28T04:08:10.752Z,20.23
2016-12-28T04:09:10.181Z,20.32
2016-12-28T04:10:10.818Z,20.21
2016-12-28T04:11:10.567Z,20.31
2016-12-28T04:12:10.575Z,20.21
2016-12-28T04:13:10.584Z,20.24
2016-12-28T04:14:10.617Z,20.33
2016-12-28T04:15:10.645Z,20.28
2016-12-28T04:16:10.658Z,20.28
2016-12-28T04:17:10.694Z,20.16
2016-12-28T04:18:10.720Z,20.2
2016-12-28T04:19:10.444Z,20.21
2016-12-28T04:20:10.469Z,20.24
2016-12-28T04:21:11.109Z,20.17
2016-12-28T04:22:11.135Z,20.21
2016-12-28T04:23:10.855Z,20.2
2016-12-28T04:24:10.876Z,20.16
2016-12-28T04:25:10.896Z,20.17
2016-12-28T04:26:10.629Z,20.21
2016-12-28T04:27:10.966Z,20.17
2016-12-28T04:28:11.299Z,20.21
2016-12-28T04:29:10.743Z,20.18
2016-12-28T04:30:11.048Z,20.29
2016-12-28T04:31:10.756Z,20.16
2016-12-28T04:32:10.781Z,20.26
2016-12-28T04:33:10.822Z,20.17
2016-12-28T04:34:10.831Z,20.14
2016-12-28T04:35:11.179Z,20.16
2016-12-28T04:36:11.232Z,20.24
2016-12-28T04:37:11.529Z,20.18
2016-12-28T04:38:11.550Z,20.18
2016-12-28T04:39:11.599Z,20.17
2016-12-28T04:40:11.304Z,20.17
2016-12-28T04:41:11.344Z,20.18
2016-12-28T04:42:11.668Z,20.17
2016-12-28T04:43:11.385Z,20.11
2016-12-28T04:44:11.414Z,20.23
2016-12-28T04:45:11.443Z,20.16
2016-12-28T04:46:11.783Z,20.18
2016-12-28T04:47:11.799Z,20.14
2016-12-28T04:48:11.517Z,20.2
2016-12-28T04:49:11.541Z,20.21
2016-12-28T04:50:11.270Z,20.16
2016-12-28T04:51:11.295Z,20.16
2016-12-28T04:52:11.615Z,20.13
2016-12-28T04:53:11.652Z,20.18
2016-12-28T04:54:11.673Z,20.18
2016-12-28T04:55:11.699Z,20.17
2016-12-28T04:56:11.730Z,20.05
2016-12-28T04:57:12.060Z,20.16
2016-12-28T04:58:11.781Z,20.16
2016-12-28T04:59:11.805Z,20.01
2016-12-28T05:00:11.830Z,20.08
2016-12-28T05:01:11.866Z,20.05
2016-12-28T05:02:11.587Z,20.06
2016-12-28T05:03:11.916Z,20.03
2016-12-28T05:04:12.245Z,20.05
2016-12-28T05:05:11.968Z,20.1
2016-12-28T05:06:12.297Z,20.11
2016-12-28T05:07:12.322Z,20.06
2016-12-28T05:08:12.355Z,20.08
2016-12-28T05:09:11.760Z,20.02
2016-12-28T05:10:12.105Z,20.08
2016-12-28T05:11:12.121Z,20.03
2016-12-28T05:12:12.162Z,20.08
2016-12-28T05:13:12.487Z,20.08
2016-12-28T05:14:12.213Z,20.03
2016-12-28T05:15:11.921Z,20.03
2016-12-28T05:16:11.950Z,20.05
2016-12-28T05:17:11.987Z,20.08
2016-12-28T05:18:12.312Z,20.02
2016-12-28T05:19:12.345Z,20.06
2016-12-28T05:20:12.366Z,20.03
2016-12-28T05:21:12.091Z,19.99
2016-12-28T05:22:12.424Z,20.01
2016-12-28T05:23:12.468Z,20.08
2016-12-28T05:24:12.777Z,20.02
2016-12-28T05:25:12.495Z,20.08
2016-12-28T05:26:12.527Z,20.06
2016-12-28T05:27:12.852Z,20.06
2016-12-28T05:28:12.890Z,20.05
2016-12-28T05:29:12.610Z,20.11
2016-12-28T05:30:12.331Z,20.06
2016-12-28T05:31:12.656Z,20.06
2016-12-28T05:32:12.385Z,20.11
2016-12-28T05:33:12.702Z,20.13
2016-12-28T05:34:12.435Z,20.11
2016-12-28T05:35:12.456Z,20.1
2016-12-28T05:36:12.785Z,20.2
2016-12-28T05:37:12.822Z,20.17
2016-12-28T05:38:13.162Z,20.17
2016-12-28T05:39:12.867Z,20.21
2016-12-28T05:40:12.587Z,20.26
2016-12-28T05:41:13.229Z,20.31
2016-12-28T05:42:12.642Z,20.32
2016-12-28T05:43:12.978Z,20.33
2016-12-28T05:44:12.997Z,20.31
2016-12-28T05:45:13.029Z,20.36
2016-12-28T05:46:12.758Z,20.42
2016-12-28T05:47:13.400Z,20.41
2016-12-28T05:48:13.416Z,20.48
2016-12-28T05:49:13.441Z,20.5
2016-12-28T05:50:13.162Z,20.55
2016-12-28T05:51:13.198Z,20.57
2016-12-28T05:52:12.944Z,20.58
2016-12-28T05:53:13.557Z,20.61
2016-12-28T05:54:13.281Z,20.61
2016-12-28T05:55:13.303Z,20.66
2016-12-28T05:56:13.324Z,20.64
2016-12-28T05:57:13.353Z,20.62
2016-12-28T05:58:13.674Z,20.62
2016-12-28T05:59:13.107Z,20.59
2016-12-28T06:00:13.425Z,20.72
2016-12-28T06:01:13.152Z,20.69
2016-12-28T06:02:13.481Z,20.76
2016-12-28T06:03:13.510Z,20.7
2016-12-28T06:04:13.844Z,20.69
2016-12-28T06:05:13.268Z,20.74
2016-12-28T06:06:13.294Z,20.74
2016-12-28T06:07:13.619Z,20.72
2016-12-28T06:08:13.640Z,20.8
2016-12-28T06:09:13.368Z,20.85
2016-12-28T06:10:13.709Z,20.87
2016-12-28T06:11:13.427Z,20.85
2016-12-28T06:12:13.451Z,20.85
2016-12-28T06:13:13.786Z,20.87
2016-12-28T06:14:13.510Z,20.91
2016-12-28T06:15:13.834Z,20.88
2016-12-28T06:16:14.167Z,20.94
2016-12-28T06:17:13.889Z,20.87
2016-12-28T06:18:13.605Z,20.95
2016-12-28T06:19:13.942Z,20.95
2016-12-28T06:20:13.968Z,20.89
2016-12-28T06:21:14.000Z,20.95
2016-12-28T06:22:14.329Z,20.94
2016-12-28T06:23:14.366Z,20.94
2016-12-28T06:24:13.774Z,21.01
2016-12-28T06:25:13.800Z,20.94
2016-12-28T06:26:13.837Z,20.91
2016-12-28T06:27:13.849Z,20.94
2016-12-28T06:28:14.173Z,20.94
2016-12-28T06:29:14.212Z,21.01
2016-12-28T06:30:13.936Z,20.99
2016-12-28T06:31:14.269Z,20.99
2016-12-28T06:32:13.983Z,20.95
2016-12-28T06:33:14.627Z,20.94
2016-12-28T06:34:14.348Z,20.92
2016-12-28T06:35:14.380Z,20.91
2016-12-28T06:36:14.405Z,21.06
2016-12-28T06:37:14.726Z,20.99
2016-12-28T06:38:14.451Z,20.98
2016-12-28T06:39:14.787Z,20.94
2016-12-28T06:40:14.204Z,21.07
2016-12-28T06:41:14.231Z,21.12
2016-12-28T06:42:14.258Z,21.07
2016-12-28T06:43:14.895Z,20.94
2016-12-28T06:44:14.307Z,21.03
2016-12-28T06:45:14.643Z,20.97
2016-12-28T06:46:14.664Z,21.06
2016-12-28T06:47:14.685Z,21.01
2016-12-28T06:48:14.718Z,21.06
2016-12-28T06:49:14.443Z,21.07
2016-12-28T06:50:14.472Z,21.06
2016-12-28T06:51:14.491Z,20.99
2016-12-28T06:52:14.860Z,21.03
2016-12-28T06:53:14.858Z,21.1
2016-12-28T06:54:14.883Z,21.03
2016-12-28T06:55:14.898Z,20.98
2016-12-28T06:56:15.233Z,21.01
2016-12-28T06:57:14.955Z,21.1
2016-12-28T06:58:14.976Z,21.01
2016-12-28T06:59:14.701Z,21.03
2016-12-28T07:00:15.042Z,21.04
2016-12-28T07:01:15.362Z,21.09
2016-12-28T07:02:15.099Z,21.06
2016-12-28T07:03:15.116Z,21.09
2016-12-28T07:04:15.148Z,21.1
2016-12-28T07:05:15.169Z,21.06
2016-12-28T07:06:14.894Z,21.03
2016-12-28T07:07:15.527Z,21.1
2016-12-28T07:08:14.944Z,21.16
2016-12-28T07:09:15.272Z,21.12
2016-12-28T07:10:15.005Z,21.13
2016-12-28T07:11:15.026Z,21.16
2016-12-28T07:12:15.046Z,21.14
2016-12-28T07:13:15.695Z,21.13
2016-12-28T07:14:15.417Z,21.14
2016-12-28T07:15:15.441Z,21.17
2016-12-28T07:16:15.779Z,21.1
2016-12-28T07:17:15.494Z,21.1
2016-12-28T07:18:15.210Z,21.13
2016-12-28T07:19:15.247Z,21.19
2016-12-28T07:20:15.272Z,21.22
2016-12-28T07:21:15.597Z,21.17
2016-12-28T07:22:15.315Z,21.24
2016-12-28T07:23:15.358Z,21.24
2016-12-28T07:24:15.995Z,21.25
2016-12-28T07:25:15.408Z,21.17
2016-12-28T07:26:15.736Z,21.21
2016-12-28T07:27:16.064Z,21.21
2016-12-28T07:28:15.476Z,21.17
2016-12-28T07:29:15.813Z,21.22
2016-12-28T07:30:15.831Z,21.31
2016-12-28T07:31:15.567Z,21.19
2016-12-28T07:32:15.893Z,21.28
2016-12-28T07:33:15.953Z,21.25
2016-12-28T07:34:15.954Z,21.21
2016-12-28T07:35:15.979Z,21.27
2016-12-28T07:36:16.003Z,21.24
2016-12-28T07:37:15.723Z,21.25
2016-12-28T07:38:16.053Z,21.24
2016-12-28T07:39:16.083Z,21.29
2016-12-28T07:40:15.802Z,21.21
2016-12-28T07:41:16.139Z,21.24
2016-12-28T07:42:15.852Z,21.24
2016-12-28T07:43:16.188Z,21.32
2016-12-28T07:44:15.917Z,21.32
2016-12-28T07:45:16.250Z,21.25
2016-12-28T07:46:16.267Z,21.25
2016-12-28T07:47:16.296Z,21.28
2016-12-28T07:48:16.324Z,21.27
2016-12-28T07:49:16.032Z,21.16
2016-12-28T07:50:16.365Z,21.17
2016-12-28T07:51:16.399Z,21.16
2016-12-28T07:52:16.435Z,21.16
2016-12-28T07:53:16.764Z,21.17
2016-12-28T07:54:16.491Z,21.12
2016-12-28T07:55:16.517Z,21.17
2016-12-28T07:56:16.844Z,21.16
2016-12-28T07:57:16.257Z,21.07
2016-12-28T07:58:16.589Z,21.12
2016-12-28T07:59:16.611Z,21.13
2016-12-28T08:00:16.343Z,21.16
2016-12-28T08:01:16.664Z,21.1
2016-12-28T08:02:17.008Z,21.16
2016-12-28T08:03:16.425Z,21.04
2016-12-28T08:04:16.745Z,21.13
2016-12-28T08:05:16.770Z,21.07
2016-12-28T08:06:16.801Z,21.07
2016-12-28T08:07:16.527Z,21.09
2016-12-28T08:08:16.551Z,21.06
2016-12-28T08:09:16.891Z,21.03
2016-12-28T08:10:16.611Z,21.03
2016-12-28T08:11:16.626Z,21.04
2016-12-28T08:12:17.263Z,20.99
2016-12-28T08:13:16.994Z,21.12
2016-12-28T08:14:17.019Z,21.01
2016-12-28T08:15:17.036Z,21.01
2016-12-28T08:16:17.380Z,20.94
2016-12-28T08:17:17.081Z,21.09
2016-12-28T08:18:17.433Z,21.01
2016-12-28T08:19:17.153Z,21.04
2016-12-28T08:20:17.478Z,21.07
2016-12-28T08:21:17.210Z,20.99
2016-12-28T08:22:16.932Z,20.92
2016-12-28T08:23:17.560Z,21.01
2016-12-28T08:24:17.593Z,20.92
2016-12-28T08:25:17.308Z,20.92
2016-12-28T08:26:17.026Z,20.97
2016-12-28T08:27:17.053Z,20.95
2016-12-28T08:28:17.686Z,21.03
2016-12-28T08:29:17.111Z,20.94
2016-12-28T08:30:17.443Z,20.98
2016-12-28T08:31:17.168Z,20.98
2016-12-28T08:32:17.796Z,20.97
2016-12-28T08:33:17.522Z,20.92
2016-12-28T08:34:17.555Z,20.98
2016-12-28T08:35:17.882Z,20.97
2016-12-28T08:36:17.599Z,20.97
2016-12-28T08:37:17.624Z,20.97
2016-12-28T08:38:17.655Z,21.01
2016-12-28T08:39:17.677Z,20.98
2016-12-28T08:40:17.405Z,20.92
2016-12-28T08:41:17.737Z,20.89
2016-12-28T08:42:18.065Z,20.88
2016-12-28T08:43:17.787Z,21.04
2016-12-28T08:44:18.135Z,20.97
2016-12-28T08:45:18.147Z,20.97
2016-12-28T08:46:17.871Z,20.92
2016-12-28T08:47:17.579Z,20.91
2016-12-28T08:48:17.616Z,20.98
2016-12-28T08:49:18.249Z,21.01
2016-12-28T08:50:17.977Z,20.87
2016-12-28T08:51:18.005Z,20.88
2016-12-28T08:52:18.335Z,20.87
2016-12-28T08:53:18.354Z,20.87
2016-12-28T08:54:18.088Z,20.88
2016-12-28T08:55:17.796Z,20.87
2016-12-28T08:56:18.136Z,20.97
2016-12-28T08:57:18.161Z,20.92
2016-12-28T08:58:18.214Z,20.92
2016-12-28T08:59:18.518Z,20.98
2016-12-28T09:00:18.542Z,20.97
2016-12-28T09:01:18.275Z,21.01
2016-12-28T09:02:18.631Z,20.94
2016-12-28T09:03:18.624Z,20.97
2016-12-28T09:04:18.352Z,20.97
2016-12-28T09:05:18.372Z,21.01
2016-12-28T09:06:18.401Z,20.98
2016-12-28T09:07:18.421Z,20.94
2016-12-28T09:08:18.150Z,20.95
2016-12-28T09:09:18.478Z,20.95
2016-12-28T09:10:18.207Z,20.99
2016-12-28T09:11:18.225Z,21.01
2016-12-28T09:12:18.868Z,20.95
2016-12-28T09:13:18.585Z,20.95
2016-12-28T09:14:18.321Z,20.98
2016-12-28T09:15:18.337Z,20.94
2016-12-28T09:16:18.965Z,20.99
2016-12-28T09:17:18.691Z,21.01
2016-12-28T09:18:18.415Z,21.1
2016-12-28T09:19:18.747Z,20.97
2016-12-28T09:20:18.468Z,21.07
2016-12-28T09:21:18.489Z,21.07
2016-12-28T09:22:18.821Z,21.06
2016-12-28T09:23:18.545Z,21.03
2016-12-28T09:24:18.874Z,21.13
2016-12-28T09:25:18.607Z,21.13
2016-12-28T09:26:18.947Z,21.1
2016-12-28T09:27:18.959Z,21.16
2016-12-28T09:28:18.998Z,21.07
2016-12-28T09:29:19.313Z,21.16
2016-12-28T09:30:19.042Z,21.17
2016-12-28T09:31:19.054Z,21.19
2016-12-28T09:32:19.388Z,21.17
2016-12-28T09:33:19.435Z,21.16
2016-12-28T09:34:19.153Z,21.25
2016-12-28T09:35:19.172Z,21.28
2016-12-28T09:36:19.201Z,21.32
2016-12-28T09:37:19.529Z,21.32
2016-12-28T09:38:19.254Z,21.34
2016-12-28T09:39:19.579Z,21.37
2016-12-28T09:40:19.307Z,21.38
2016-12-28T09:41:19.637Z,21.29
2016-12-28T09:42:19.050Z,21.28
2016-12-28T09:43:19.074Z,21.35
2016-12-28T09:44:19.409Z,21.4
2016-12-28T09:45:19.438Z,21.34
2016-12-28T09:46:19.760Z,21.34
2016-12-28T09:47:19.183Z,21.32
2016-12-28T09:48:19.528Z,21.34
2016-12-28T09:49:19.549Z,21.38
2016-12-28T09:50:19.581Z,21.43
2016-12-28T09:51:19.598Z,21.42
2016-12-28T09:52:19.926Z,21.44
2016-12-28T09:53:19.651Z,21.47
2016-12-28T09:54:19.371Z,21.47
2016-12-28T09:55:19.412Z,21.46
2016-12-28T09:56:19.738Z,21.5
2016-12-28T09:57:19.766Z,21.5
2016-12-28T09:58:19.823Z,21.49
2016-12-28T09:59:19.820Z,21.53
2016-12-28T10:00:19.537Z,21.54
2016-12-28T10:01:20.169Z,21.59
2016-12-28T10:02:19.586Z,21.58
2016-12-28T10:03:20.223Z,21.59
2016-12-28T10:04:19.944Z,21.62
2016-12-28T10:05:19.964Z,21.61
2016-12-28T10:06:20.013Z,21.64
2016-12-28T10:07:20.333Z,21.59
2016-12-28T10:08:20.058Z,21.64
2016-12-28T10:09:20.388Z,21.69
2016-12-28T10:10:20.116Z,21.71
2016-12-28T10:11:19.837Z,21.72
2016-12-28T10:12:19.853Z,21.71
2016-12-28T10:13:20.486Z,21.69
2016-12-28T10:14:19.910Z,21.75
2016-12-28T10:15:19.935Z,21.71
2016-12-28T10:16:20.269Z,21.74
2016-12-28T10:17:20.301Z,21.71
2016-12-28T10:18:20.018Z,21.77
2016-12-28T10:19:20.079Z,21.77
2016-12-28T10:20:20.384Z,21.84
2016-12-28T10:21:20.713Z,21.75
2016-12-28T10:22:20.435Z,21.75
2016-12-28T10:23:20.752Z,21.88
2016-12-28T10:24:20.491Z,21.84
2016-12-28T10:25:20.515Z,21.8
2016-12-28T10:26:20.844Z,21.82
2016-12-28T10:27:20.564Z,21.8
2016-12-28T10:28:20.592Z,21.94
2016-12-28T10:29:20.627Z,21.9
2016-12-28T10:30:20.664Z,21.88
2016-12-28T10:31:20.676Z,21.79
2016-12-28T10:32:21.017Z,21.86
2016-12-28T10:33:20.426Z,21.88
2016-12-28T10:34:20.762Z,21.82
2016-12-28T10:35:20.784Z,21.82
2016-12-28T10:36:20.816Z,21.9
2016-12-28T10:37:20.835Z,21.92
2016-12-28T10:38:21.177Z,21.92
2016-12-28T10:39:20.894Z,21.92
2016-12-28T10:40:20.627Z,21.86
2016-12-28T10:41:20.951Z,22.06
2016-12-28T10:42:21.281Z,22.05
2016-12-28T10:43:21.313Z,22.09
2016-12-28T10:44:21.028Z,22.14
2016-12-28T10:45:21.054Z,21.99
2016-12-28T10:46:21.083Z,22
2016-12-28T10:47:20.796Z,22.05
2016-12-28T10:48:21.445Z,22.09
2016-12-28T10:49:20.858Z,22.03
2016-12-28T10:50:20.899Z,22.02
2016-12-28T10:51:20.923Z,22.05
2016-12-28T10:52:21.553Z,22.06
2016-12-28T10:53:21.283Z,22.09
2016-12-28T10:54:21.306Z,22.07
2016-12-28T10:55:21.019Z,22.09
2016-12-28T10:56:21.656Z,22.09
2016-12-28T10:57:21.085Z,22.05
2016-12-28T10:58:21.713Z,22.03
2016-12-28T10:59:21.438Z,22.1
2016-12-28T11:00:21.463Z,22.12
2016-12-28T11:01:21.196Z,22.1
2016-12-28T11:02:21.529Z,22.05
2016-12-28T11:03:21.262Z,22.1
2016-12-28T11:04:21.291Z,22.07
2016-12-28T11:05:21.912Z,22.07
2016-12-28T11:06:21.328Z,22.07
2016-12-28T11:07:21.353Z,22.06
2016-12-28T11:08:21.680Z,21.99
2016-12-28T11:09:21.419Z,22.14
2016-12-28T11:10:21.435Z,22.09
2016-12-28T11:11:21.768Z,21.98
2016-12-28T11:12:21.801Z,22
2016-12-28T11:13:21.826Z,22.05
2016-12-28T11:14:21.851Z,21.92
2016-12-28T11:15:21.580Z,22.02
2016-12-28T11:16:21.913Z,21.9
2016-12-28T11:17:21.933Z,21.94
2016-12-28T11:18:21.649Z,21.91
2016-12-28T11:19:22.286Z,21.94
2016-12-28T11:20:21.711Z,21.88
2016-12-28T11:21:21.740Z,21.84
2016-12-28T11:22:22.373Z,21.9
2016-12-28T11:23:21.803Z,21.9
2016-12-28T11:24:22.125Z,22
2016-12-28T11:25:21.857Z,22.03
2016-12-28T11:26:22.491Z,22.03
2016-12-28T11:27:22.207Z,22.07
2016-12-28T11:28:22.544Z,22.06
2016-12-28T11:29:22.573Z,21.99
2016-12-28T11:30:21.983Z,22.02
2016-12-28T11:31:22.616Z,22.05
2016-12-28T11:32:22.645Z,22.05
2016-12-28T11:33:22.679Z,22.05
2016-12-28T11:34:22.403Z,22.03
2016-12-28T11:35:22.128Z,22.06
2016-12-28T11:36:22.166Z,22.07
2016-12-28T11:37:22.490Z,22.07
2016-12-28T11:38:22.524Z,22.05
2016-12-28T11:39:22.541Z,22.07
2016-12-28T11:40:22.869Z,22.02
2016-12-28T11:41:22.591Z,22.1
2016-12-28T11:42:22.621Z,22.05
2016-12-28T11:43:22.957Z,22.05
2016-12-28T11:44:22.686Z,22.03
2016-12-28T11:45:22.715Z,22
2016-12-28T11:46:22.748Z,22.06
2016-12-28T11:47:22.770Z,21.98
2016-12-28T11:48:23.103Z,22.05
2016-12-28T11:49:23.150Z,22.02
2016-12-28T11:50:22.849Z,22.02
2016-12-28T11:51:22.874Z,22
2016-12-28T11:52:22.907Z,21.99
2016-12-28T11:53:23.012Z,21.98
2016-12-28T11:54:23.041Z,22.14
2016-12-28T11:55:23.067Z,21.99
2016-12-28T11:56:22.712Z,22.1
2016-12-28T11:57:23.120Z,22.09
2016-12-28T11:58:22.765Z,22.09
2016-12-28T11:59:23.566Z,22.06
2016-12-28T12:00:23.204Z,22.05
2016-12-28T12:01:23.227Z,22.03
2016-12-28T12:02:23.252Z,22.07
2016-12-28T12:03:23.289Z,22.1
2016-12-28T12:04:22.930Z,22
2016-12-28T12:05:22.960Z,21.99
2016-12-28T12:06:22.980Z,21.99
2016-12-28T12:07:23.401Z,22.02
2016-12-28T12:08:23.811Z,22.02
2016-12-28T12:09:23.075Z,22.06
2016-12-28T12:10:23.494Z,22.06
2016-12-28T12:11:23.116Z,22.06
2016-12-28T12:12:23.534Z,22.05
2016-12-28T12:13:23.571Z,22
2016-12-28T12:14:23.600Z,22.02
2016-12-28T12:15:24.004Z,22.07
2016-12-28T12:16:23.655Z,22.09
2016-12-28T12:17:23.691Z,21.98
2016-12-28T12:18:23.315Z,22.05
2016-12-28T12:19:23.728Z,22.1
2016-12-28T12:20:23.774Z,22.06
2016-12-28T12:21:24.184Z,22.09
2016-12-28T12:22:24.200Z,22.05
2016-12-28T12:23:23.840Z,22.03
2016-12-28T12:24:24.241Z,22.1
2016-12-28T12:25:23.509Z,22.02
2016-12-28T12:26:24.311Z,22.05
2016-12-28T12:27:23.952Z,22.14
2016-12-28T12:28:23.597Z,22.14
2016-12-28T12:29:24.014Z,22.06
2016-12-28T12:30:24.039Z,22.07
2016-12-28T12:31:24.452Z,22.07
2016-12-28T12:32:24.483Z,22.12
2016-12-28T12:33:23.730Z,22.07
2016-12-28T12:34:24.530Z,22.03
2016-12-28T12:35:24.566Z,22.1
2016-12-28T12:36:23.817Z,22.05
2016-12-28T12:37:24.241Z,22.05
2016-12-28T12:38:23.878Z,22.07
2016-12-28T12:39:23.896Z,22.05
2016-12-28T12:40:24.697Z,22.07
2016-12-28T12:41:23.957Z,22.06
2016-12-28T12:42:24.374Z,22.02
2016-12-28T12:43:24.787Z,22.1
2016-12-28T12:44:24.036Z,22.03
2016-12-28T12:45:24.440Z,21.91
2016-12-28T12:46:24.090Z,22.09
2016-12-28T12:47:24.886Z,22
2016-12-28T12:48:24.913Z,21.94
2016-12-28T12:49:24.548Z,22.03
2016-12-28T12:50:24.203Z,22
2016-12-28T12:51:25.002Z,22.05
2016-12-28T12:52:24.683Z,22.05
2016-12-28T12:53:24.672Z,21.96
2016-12-28T12:54:24.705Z,22.06
2016-12-28T12:55:24.335Z,22.06